Time;durP1;ratioP1;P1;durP2;ratioP2;P2;SDS_P1;SDS_P2;PMS_P1;PMS_P2;Temp;Humidity;BMP_temperature;BMP_pressure;BME280_temperature;BME280_humidity;BME280_pressure;Samples;Min_cycle;Max_cycle;Signal;HPM_P1;HPM_P2
2023/04/28 00:00:26;;;;;;;42.23;27.60;;;10.60;57.50;;;;;;5075998;28;20250;-67
2023/04/28 00:02:52;;;;;;;40.20;26.67;;;10.50;77.00;;;;;;5075312;28;20651;-68
2023/04/28 00:05:18;;;;;;;33.40;23.63;;;10.40;89.70;;;;;;5075969;28;20568;-68
2023/04/28 00:07:44;;;;;;;37.90;23.97;;;10.30;97.00;;;;;;5075740;28;20169;-68
2023/04/28 00:10:10;;;;;;;33.23;22.53;;;10.40;99.90;;;;;;5075899;28;20260;-67
2023/04/28 00:12:36;;;;;;;33.67;21.87;;;10.30;98.50;;;;;;5076050;28;20183;-68
2023/04/28 00:15:02;;;;;;;32.90;23.17;;;10.30;96.50;;;;;;5075764;28;20225;-67
2023/04/28 00:17:28;;;;;;;38.80;24.37;;;10.40;97.70;;;;;;5075904;28;20196;-68
2023/04/28 00:19:53;;;;;;;33.40;23.50;;;10.30;96.80;;;;;;5075619;28;20679;-67
2023/04/28 00:22:19;;;;;;;35.90;24.20;;;10.30;95.80;;;;;;5075337;28;20179;-67
2023/04/28 00:24:45;;;;;;;35.13;23.97;;;10.40;99.90;;;;;;5075873;28;20169;-67
2023/04/28 00:27:10;;;;;;;38.37;24.67;;;10.40;99.90;;;;;;5075644;28;20607;-66
2023/04/28 00:29:36;;;;;;;36.67;25.70;;;10.30;99.90;;;;;;5075777;28;20184;-66
2023/04/28 00:32:02;;;;;;;38.70;26.67;;;10.30;99.90;;;;;;5075364;28;20180;-67
2023/04/28 00:34:32;;;;;;;47.83;28.53;;;10.30;99.90;;;;;;5073972;28;20172;-67
2023/04/28 00:36:57;;;;;;;52.70;31.27;;;10.30;99.90;;;;;;5075427;28;20240;-68
2023/04/28 00:39:24;;;;;;;40.33;27.23;;;10.30;99.90;;;;;;5075700;28;20212;-68
2023/04/28 00:41:50;;;;;;;40.07;28.83;;;10.30;99.90;;;;;;5075299;28;20165;-67
2023/04/28 00:44:15;;;;;;;43.30;28.80;;;10.30;99.90;;;;;;5089983;28;20187;-67
2023/04/28 00:46:41;;;;;;;39.30;27.60;;;10.30;99.90;;;;;;5075155;28;20268;-67
2023/04/28 00:49:07;;;;;;;42.20;27.70;;;10.20;99.90;;;;;;5074993;28;20173;-68
2023/04/28 00:51:33;;;;;;;40.33;28.17;;;10.30;99.90;;;;;;5075263;28;20243;-67
2023/04/28 00:53:59;;;;;;;45.13;27.17;;;10.20;99.90;;;;;;5075561;28;20279;-68
2023/04/28 00:56:27;;;;;;;37.53;26.30;;;10.20;99.90;;;;;;5075091;28;20172;-67
2023/04/28 00:58:53;;;;;;;41.47;26.93;;;10.20;99.90;;;;;;5075011;28;20216;-66
2023/04/28 01:01:18;;;;;;;41.30;28.17;;;10.20;99.90;;;;;;5073778;28;20165;-65
2023/04/28 01:03:44;;;;;;;42.73;27.63;;;10.20;99.90;;;;;;5074629;28;20616;-66
2023/04/28 01:06:11;;;;;;;42.70;28.70;;;10.20;99.90;;;;;;5074866;28;20198;-66
2023/04/28 01:08:37;;;;;;;42.93;28.37;;;10.30;99.90;;;;;;5074964;28;20172;-66
2023/04/28 01:11:03;;;;;;;41.13;27.33;;;10.40;99.90;;;;;;5074814;28;20169;-67
2023/04/28 01:13:29;;;;;;;41.10;28.37;;;10.40;99.90;;;;;;5074916;28;20590;-66
2023/04/28 01:15:55;;;;;;;43.60;28.93;;;10.40;99.90;;;;;;5074634;28;20177;-66
2023/04/28 01:18:22;;;;;;;44.07;29.63;;;10.40;99.90;;;;;;5074377;28;20214;-66
2023/04/28 01:20:47;;;;;;;43.43;29.70;;;10.40;99.90;;;;;;5074592;28;20172;-66
2023/04/28 01:23:14;;;;;;;41.03;28.13;;;10.40;99.90;;;;;;5074846;28;20645;-66
2023/04/28 01:25:40;;;;;;;39.40;28.10;;;10.40;99.90;;;;;;5074505;28;20220;-66
2023/04/28 01:28:06;;;;;;;40.40;27.70;;;10.40;99.90;;;;;;5090248;28;20177;-66
2023/04/28 01:30:32;;;;;;;41.40;30.10;;;10.40;99.90;;;;;;5074491;28;20183;-65
2023/04/28 01:32:58;;;;;;;44.67;29.03;;;10.40;99.90;;;;;;5074048;28;20176;-66
2023/04/28 01:35:23;;;;;;;41.93;28.37;;;10.40;99.90;;;;;;5090125;28;20576;-66
2023/04/28 01:37:49;;;;;;;47.13;28.50;;;10.30;99.90;;;;;;5074442;28;20203;-65
2023/04/28 01:40:15;;;;;;;41.27;28.27;;;10.20;99.90;;;;;;5074407;28;20562;-66
2023/04/28 01:42:40;;;;;;;45.03;28.83;;;10.20;99.90;;;;;;5073834;28;20231;-66
2023/04/28 01:45:06;;;;;;;42.80;29.07;;;10.20;99.90;;;;;;5089760;28;20208;-66
2023/04/28 01:47:32;;;;;;;41.07;28.37;;;10.10;99.90;;;;;;5073668;28;20650;-66
2023/04/28 01:49:58;;;;;;;41.73;29.23;;;10.10;99.90;;;;;;5074120;28;20256;-66
2023/04/28 01:52:24;;;;;;;42.83;29.13;;;10.10;99.90;;;;;;5073896;28;20522;-66
2023/04/28 01:54:50;;;;;;;47.67;30.83;;;10.10;99.90;;;;;;5073870;28;20208;-66
2023/04/28 01:57:16;;;;;;;44.07;30.90;;;10.10;99.90;;;;;;5073948;28;20242;-66
2023/04/28 01:59:41;;;;;;;49.60;32.37;;;10.10;99.90;;;;;;5073901;28;20250;-66
2023/04/28 02:02:07;;;;;;;49.47;32.63;;;10.10;99.90;;;;;;5089070;28;20576;-66
2023/04/28 02:04:33;;;;;;;45.43;32.73;;;10.10;99.90;;;;;;5074002;28;20255;-66
2023/04/28 02:06:58;;;;;;;45.83;31.90;;;10.10;99.90;;;;;;5073890;28;20264;-65
2023/04/28 02:09:24;;;;;;;50.10;33.27;;;10.00;99.90;;;;;;5072783;28;20620;-66
2023/04/28 02:11:50;;;;;;;51.60;32.47;;;10.00;99.90;;;;;;5073705;28;20168;-66
2023/04/28 02:14:15;;;;;;;49.23;32.80;;;9.80;99.90;;;;;;5089438;28;20181;-66
2023/04/28 02:16:41;;;;;;;55.53;34.97;;;9.80;99.90;;;;;;5073219;28;20661;-65
2023/04/28 02:19:07;;;;;;;53.90;35.60;;;9.80;99.90;;;;;;5073765;28;20227;-66
2023/04/28 02:21:32;;;;;;;48.53;33.50;;;9.80;99.90;;;;;;5073354;28;20172;-64
2023/04/28 02:23:58;;;;;;;52.20;35.13;;;9.90;99.90;;;;;;5073514;28;20215;-65
2023/04/28 02:26:24;;;;;;;54.97;35.50;;;10.00;99.90;;;;;;5073364;28;20220;-64
2023/04/28 02:28:50;;;;;;;55.03;35.70;;;10.00;99.90;;;;;;5073365;28;20179;-65
2023/04/28 02:31:16;;;;;;;52.60;34.73;;;10.00;99.90;;;;;;5072966;28;20173;-64
2023/04/28 02:33:42;;;;;;;52.13;34.50;;;10.10;99.90;;;;;;5073361;28;20169;-65
2023/04/28 02:36:08;;;;;;;52.80;35.70;;;10.10;99.90;;;;;;5073343;28;20177;-65
2023/04/28 02:38:34;;;;;;;51.30;34.57;;;10.10;99.90;;;;;;5073144;28;20551;-66
2023/04/28 02:41:05;;;;;;;52.17;34.30;;;10.20;99.90;;;;;;5073327;28;20173;-66
2023/04/28 02:43:35;;;;;;;55.13;34.00;;;10.20;99.90;;;;;;5072839;28;20244;-65
2023/04/28 02:46:04;;;;;;;52.10;34.73;;;10.20;99.90;;;;;;5073042;28;20624;-64
2023/04/28 02:48:30;;;;;;;50.70;35.03;;;10.10;99.90;;;;;;5073026;28;20161;-66
2023/04/28 02:50:56;;;;;;;54.47;36.00;;;10.00;99.90;;;;;;5073209;28;20169;-66
2023/04/28 02:53:21;;;;;;;53.13;35.80;;;10.00;99.90;;;;;;5072838;28;20684;-65
2023/04/28 02:55:47;;;;;;;52.83;35.67;;;9.90;99.90;;;;;;5072781;28;20222;-65
2023/04/28 02:58:13;;;;;;;55.67;37.00;;;9.90;99.90;;;;;;5072830;28;20260;-65
2023/04/28 03:00:38;;;;;;;49.70;34.97;;;9.90;99.90;;;;;;5072788;28;20184;-64
2023/04/28 03:03:04;;;;;;;55.23;36.93;;;9.90;99.90;;;;;;5072851;28;20255;-65
2023/04/28 03:05:30;;;;;;;53.83;34.13;;;10.00;99.90;;;;;;5072948;28;20234;-65
2023/04/28 03:07:55;;;;;;;51.10;35.13;;;10.00;99.90;;;;;;5077405;28;20172;-64
2023/04/28 03:10:21;;;;;;;50.97;34.80;;;10.00;99.90;;;;;;5079712;28;20172;-64
2023/04/28 03:12:47;;;;;;;55.80;35.70;;;10.10;99.90;;;;;;5079310;28;20638;-65
2023/04/28 03:15:12;;;;;;;52.77;35.87;;;10.00;99.90;;;;;;5079282;28;20685;-65
2023/04/28 03:17:40;;;;;;;51.03;35.27;;;10.00;99.90;;;;;;5079407;28;20169;-65
2023/04/28 03:20:07;;;;;;;56.70;36.57;;;10.00;99.90;;;;;;5079132;28;20247;-65
2023/04/28 03:22:33;;;;;;;57.27;36.90;;;10.10;99.90;;;;;;5077790;28;20587;-65
2023/04/28 03:24:59;;;;;;;54.67;37.27;;;10.20;99.90;;;;;;5079751;28;20180;-67
2023/04/28 03:27:25;;;;;;;53.83;36.70;;;10.20;99.90;;;;;;5078920;28;20204;-65
2023/04/28 03:29:51;;;;;;;56.63;37.40;;;10.30;99.90;;;;;;5079188;28;20168;-65
2023/04/28 03:32:16;;;;;;;53.57;35.47;;;10.40;99.90;;;;;;5079207;28;20742;-66
2023/04/28 03:34:42;;;;;;;50.87;36.23;;;10.50;99.90;;;;;;5079008;28;20572;-66
2023/04/28 03:37:07;;;;;;;56.57;36.80;;;10.50;99.90;;;;;;5078712;28;20211;-67
2023/04/28 03:39:33;;;;;;;54.70;35.17;;;10.50;99.90;;;;;;5079315;28;20566;-65
2023/04/28 03:41:59;;;;;;;53.07;35.13;;;10.40;99.90;;;;;;5078635;28;20255;-65
2023/04/28 03:44:25;;;;;;;55.73;37.70;;;10.30;99.90;;;;;;5078888;28;20646;-64
2023/04/28 03:46:51;;;;;;;61.40;37.93;;;10.40;99.90;;;;;;5079075;28;20256;-65
2023/04/28 03:49:16;;;;;;;55.77;35.87;;;10.30;99.90;;;;;;5079167;28;20172;-66
2023/04/28 03:51:42;;;;;;;58.37;38.67;;;10.30;99.90;;;;;;5079130;28;20655;-66
2023/04/28 03:54:08;;;;;;;60.70;39.37;;;10.40;99.90;;;;;;5078220;28;20181;-66
2023/04/28 03:56:33;;;;;;;65.23;41.47;;;10.40;99.90;;;;;;5079171;28;20181;-66
2023/04/28 03:58:59;;;;;;;60.43;40.23;;;10.40;99.90;;;;;;5078164;28;20671;-65
2023/04/28 04:01:24;;;;;;;58.30;39.20;;;10.40;99.90;;;;;;5094736;28;20454;-65
2023/04/28 04:03:50;;;;;;;58.67;39.50;;;10.40;99.90;;;;;;5078808;28;20202;-65
2023/04/28 04:06:16;;;;;;;58.97;39.13;;;10.40;99.90;;;;;;5078823;28;20176;-65
2023/04/28 04:08:42;;;;;;;54.47;37.07;;;10.40;99.90;;;;;;5078819;28;20175;-66
2023/04/28 04:11:08;;;;;;;55.03;37.80;;;10.40;99.90;;;;;;5078518;28;20180;-65
2023/04/28 04:13:34;;;;;;;55.77;39.10;;;10.40;99.90;;;;;;5078126;28;20176;-65
2023/04/28 04:15:59;;;;;;;69.03;40.67;;;10.50;99.90;;;;;;5078620;28;20175;-66
2023/04/28 04:18:26;;;;;;;60.83;39.60;;;10.50;99.90;;;;;;5077563;28;20183;-65
2023/04/28 04:20:52;;;;;;;61.63;40.03;;;10.50;99.90;;;;;;5075644;28;20686;-67
2023/04/28 04:23:18;;;;;;;59.00;39.30;;;10.40;99.90;;;;;;5075157;28;20172;-65
2023/04/28 04:25:44;;;;;;;65.27;42.13;;;10.40;99.90;;;;;;5075833;28;20192;-66
2023/04/28 04:28:09;;;;;;;60.37;40.57;;;10.40;99.90;;;;;;5074621;28;20585;-66
2023/04/28 04:30:35;;;;;;;55.60;38.57;;;10.40;99.90;;;;;;5075399;28;20183;-66
2023/04/28 04:33:01;;;;;;;60.00;40.03;;;10.40;99.90;;;;;;5074953;28;20213;-66
2023/04/28 04:35:26;;;;;;;61.57;40.10;;;10.40;99.90;;;;;;5075029;28;20177;-65
2023/04/28 04:37:52;;;;;;;62.77;41.20;;;10.40;99.90;;;;;;5074744;28;20173;-66
2023/04/28 04:40:18;;;;;;;60.90;40.83;;;10.50;99.90;;;;;;5074699;28;20245;-67
2023/04/28 04:42:43;;;;;;;63.23;42.17;;;10.50;99.90;;;;;;5074397;28;20310;-65
2023/04/28 04:45:09;;;;;;;61.30;41.60;;;10.60;99.90;;;;;;5074863;28;20200;-66
2023/04/28 04:47:35;;;;;;;67.40;41.97;;;10.70;99.90;;;;;;5075064;28;20566;-66
2023/04/28 04:50:00;;;;;;;63.53;42.80;;;10.80;99.90;;;;;;5074945;28;20647;-66
2023/04/28 04:52:26;;;;;;;63.53;42.27;;;10.70;99.90;;;;;;5074375;28;20647;-67
2023/04/28 04:54:52;;;;;;;59.90;40.57;;;10.70;99.90;;;;;;5074298;28;20253;-66
2023/04/28 04:57:18;;;;;;;64.73;42.93;;;10.70;99.90;;;;;;5074701;28;20176;-66
2023/04/28 04:59:44;;;;;;;66.67;42.87;;;10.80;99.90;;;;;;5074075;28;20208;-66
2023/04/28 05:02:10;;;;;;;59.30;41.70;;;10.90;99.90;;;;;;5074267;28;20161;-67
2023/04/28 05:04:35;;;;;;;59.77;42.30;;;11.00;99.90;;;;;;5074137;28;20204;-65
2023/04/28 05:07:01;;;;;;;66.80;42.43;;;11.00;99.90;;;;;;5074687;28;20164;-66
2023/04/28 05:09:28;;;;;;;65.83;43.43;;;11.10;99.90;;;;;;5073649;28;20230;-65
2023/04/28 05:11:54;;;;;;;61.30;41.67;;;11.20;99.90;;;;;;5089352;28;20191;-67
2023/04/28 05:14:20;;;;;;;62.47;42.67;;;11.30;99.90;;;;;;5074432;28;20204;-67
2023/04/28 05:16:46;;;;;;;62.57;42.67;;;11.40;99.90;;;;;;5074031;28;20575;-66
2023/04/28 05:19:11;;;;;;;61.03;42.43;;;11.50;99.90;;;;;;5089564;28;20254;-66
2023/04/28 05:21:37;;;;;;;60.90;41.90;;;11.60;99.90;;;;;;5073950;28;20164;-66
2023/04/28 05:24:03;;;;;;;65.53;44.50;;;11.60;99.90;;;;;;5073557;28;20165;-67
2023/04/28 05:26:28;;;;;;;64.03;44.40;;;11.70;99.90;;;;;;5073535;28;20192;-67
2023/04/28 05:28:54;;;;;;;64.53;42.83;;;11.80;99.90;;;;;;5073004;28;20177;-67
2023/04/28 05:31:19;;;;;;;61.20;42.20;;;11.80;99.90;;;;;;5088343;28;20489;-67
2023/04/28 05:33:45;;;;;;;63.67;43.90;;;11.90;99.90;;;;;;5073352;28;20202;-67
2023/04/28 05:36:11;;;;;;;59.17;42.17;;;11.90;99.90;;;;;;5073620;28;20260;-66
2023/04/28 05:38:37;;;;;;;63.67;43.77;;;11.80;99.90;;;;;;5072852;28;20221;-67
2023/04/28 05:41:03;;;;;;;64.27;43.07;;;11.80;99.90;;;;;;5073254;28;20640;-67
2023/04/28 05:43:28;;;;;;;48.97;33.57;;;11.80;99.90;;;;;;5071609;28;20312;-68
2023/04/28 05:45:54;;;;;;;62.10;39.23;;;11.90;99.90;;;;;;5073144;28;20180;-66
2023/04/28 05:48:20;;;;;;;58.83;38.10;;;12.00;99.90;;;;;;5072685;28;20172;-66
2023/04/28 05:50:45;;;;;;;59.43;40.80;;;12.00;99.90;;;;;;5072916;28;20593;-67
2023/04/28 05:53:11;;;;;;;49.27;31.57;;;12.00;99.90;;;;;;5088068;28;20176;-66
2023/04/28 05:55:37;;;;;;;42.33;28.93;;;12.10;99.90;;;;;;5073176;28;20263;-67
2023/04/28 05:58:03;;;;;;;48.27;33.60;;;12.20;99.90;;;;;;5072119;28;20620;-68
2023/04/28 06:00:29;;;;;;;34.13;25.30;;;12.30;99.90;;;;;;5073110;28;20212;-65
2023/04/28 06:02:55;;;;;;;36.73;25.40;;;12.50;99.90;;;;;;5072899;28;20176;-66
2023/04/28 06:05:21;;;;;;;37.27;25.60;;;12.80;99.90;;;;;;5072356;28;20180;-67
2023/04/28 06:07:47;;;;;;;26.63;20.10;;;13.00;99.90;;;;;;5072886;28;20654;-67
2023/04/28 06:10:12;;;;;;;31.10;21.63;;;13.20;99.90;;;;;;5071202;28;20173;-68
2023/04/28 06:12:38;;;;;;;22.70;17.93;;;13.40;99.90;;;;;;5087876;28;20169;-67
2023/04/28 06:15:05;;;;;;;23.80;18.57;;;13.50;99.90;;;;;;5072936;28;20173;-68
2023/04/28 06:17:32;;;;;;;24.77;18.33;;;13.60;99.90;;;;;;5071938;28;20581;-68
2023/04/28 06:19:58;;;;;;;19.60;17.10;;;13.70;99.90;;;;;;5072478;28;20243;-67
2023/04/28 06:22:24;;;;;;;16.60;14.17;;;13.70;99.90;;;;;;5072324;28;20349;-68
2023/04/28 06:24:51;;;;;;;15.67;14.07;;;13.90;99.90;;;;;;5071835;28;20218;-68
2023/04/28 06:27:16;;;;;;;13.80;12.43;;;14.00;99.90;;;;;;5072574;28;20263;-68
2023/04/28 06:29:42;;;;;;;11.90;10.70;;;14.10;99.90;;;;;;5088017;28;20196;-68
2023/04/28 06:32:08;;;;;;;10.83;9.80;;;14.20;99.90;;;;;;5071919;28;20627;-69
2023/04/28 06:34:34;;;;;;;11.60;10.43;;;14.30;99.90;;;;;;5070662;28;20168;-68
2023/04/28 06:37:00;;;;;;;9.60;8.70;;;14.40;99.90;;;;;;5072026;28;20172;-68
2023/04/28 06:39:26;;;;;;;9.67;8.77;;;14.50;99.90;;;;;;5071159;28;20208;-68
2023/04/28 06:41:54;;;;;;;9.87;8.47;;;14.50;99.90;;;;;;5070369;28;20208;-67
2023/04/28 06:44:20;;;;;;;10.30;9.20;;;14.50;99.90;;;;;;5071514;28;20180;-68
2023/04/28 06:46:45;;;;;;;8.00;7.30;;;14.50;99.90;;;;;;5070666;28;20263;-67
2023/04/28 06:49:11;;;;;;;8.80;7.90;;;14.50;99.90;;;;;;5071432;28;20180;-68
2023/04/28 06:51:36;;;;;;;10.17;7.07;;;14.70;99.90;;;;;;5070947;28;20234;-67
2023/04/28 06:54:02;;;;;;;9.13;8.17;;;14.80;99.90;;;;;;5072053;28;20271;-68
2023/04/28 06:56:28;;;;;;;6.90;6.40;;;14.90;99.90;;;;;;5071688;28;20171;-68
2023/04/28 06:58:55;;;;;;;7.30;6.53;;;15.00;99.90;;;;;;5072338;28;20561;-68
2023/04/28 07:01:21;;;;;;;7.30;6.73;;;15.10;99.90;;;;;;5072100;28;20668;-68
2023/04/28 07:03:47;;;;;;;6.27;5.70;;;15.20;99.90;;;;;;5071195;28;20195;-67
2023/04/28 07:06:12;;;;;;;6.10;5.37;;;15.10;99.90;;;;;;5071479;28;20214;-68
2023/04/28 07:08:38;;;;;;;6.73;6.07;;;15.00;99.90;;;;;;5071880;28;20620;-66
2023/04/28 07:11:05;;;;;;;5.43;5.07;;;15.20;99.90;;;;;;5070928;28;20599;-68
2023/04/28 07:13:31;;;;;;;5.57;5.07;;;15.10;99.90;;;;;;5071754;28;20196;-67
2023/04/28 07:15:57;;;;;;;5.37;4.97;;;15.20;99.90;;;;;;5070656;28;20245;-68
2023/04/28 07:18:22;;;;;;;6.53;5.37;;;15.20;99.90;;;;;;5071924;28;20164;-68
2023/04/28 07:20:48;;;;;;;5.00;4.70;;;15.10;99.90;;;;;;5070235;28;20196;-68
2023/04/28 07:23:14;;;;;;;5.50;5.00;;;15.10;99.90;;;;;;5071929;28;20173;-68
2023/04/28 07:25:40;;;;;;;5.43;4.93;;;15.20;99.90;;;;;;5071896;28;20197;-68
2023/04/28 07:28:06;;;;;;;6.43;3.90;;;15.20;99.90;;;;;;5071464;28;20173;-67
2023/04/28 07:30:33;;;;;;;4.40;4.10;;;15.20;99.90;;;;;;5072381;28;20200;-66
2023/04/28 07:32:58;;;;;;;4.23;3.83;;;15.20;99.90;;;;;;5070228;28;20219;-68
2023/04/28 07:35:25;;;;;;;3.80;3.40;;;15.40;99.90;;;;;;5071500;28;20200;-67
2023/04/28 07:37:51;;;;;;;3.57;3.30;;;15.60;99.90;;;;;;5072300;28;20172;-67
2023/04/28 07:40:17;;;;;;;3.20;3.00;;;15.90;99.90;;;;;;5071458;28;20291;-67
2023/04/28 07:42:42;;;;;;;3.67;3.30;;;16.80;99.90;;;;;;5071088;28;20239;-66
2023/04/28 07:45:08;;;;;;;6.88;2.95;;;17.70;99.90;;;;;;5071753;28;20255;-67
2023/04/28 07:47:35;;;;;;;2.72;2.50;;;18.70;99.90;;;;;;5072033;28;20593;-67
2023/04/28 07:50:05;;;;;;;2.30;2.20;;;19.70;72.00;;;;;;5071555;28;20187;-67
2023/04/28 07:52:32;;;;;;;3.47;2.40;;;20.90;37.30;;;;;;5072287;28;20168;-67
2023/04/28 07:55:01;;;;;;;4.18;2.00;;;22.00;1.00;;;;;;5074875;28;20531;-68
2023/04/28 07:57:28;;;;;;;2.70;2.13;;;22.00;1.00;;;;;;5075495;28;20173;-66
2023/04/28 07:59:54;;;;;;;1.90;1.80;;;21.40;1.00;;;;;;5075291;28;20204;-67
2023/04/28 08:02:20;;;;;;;1.90;1.80;;;21.10;1.00;;;;;;5075557;28;20310;-68
2023/04/28 08:04:46;;;;;;;2.42;2.30;;;20.60;5.20;;;;;;5074542;28;20171;-67
2023/04/28 08:07:12;;;;;;;2.50;1.77;;;20.30;21.80;;;;;;5075589;28;20541;-67
2023/04/28 08:09:40;;;;;;;1.40;1.30;;;20.00;28.30;;;;;;5074852;28;20168;-67
2023/04/28 08:12:06;;;;;;;1.05;1.05;;;19.20;38.00;;;;;;5075718;28;20168;-68
2023/04/28 08:14:32;;;;;;;1.58;1.45;;;18.70;52.60;;;;;;5075128;28;20647;-68
2023/04/28 08:16:57;;;;;;;1.30;1.30;;;18.30;77.10;;;;;;5074995;28;20168;-70
2023/04/28 08:19:23;;;;;;;1.48;1.38;;;18.30;76.20;;;;;;5074810;28;20209;-69
2023/04/28 08:21:49;;;;;;;1.70;1.60;;;18.10;90.10;;;;;;5075321;28;20230;-69
2023/04/28 08:24:14;;;;;;;1.60;1.50;;;17.90;95.70;;;;;;5074003;28;20220;-69
2023/04/28 08:26:40;;;;;;;1.23;1.23;;;17.80;97.50;;;;;;5075107;28;20200;-69
2023/04/28 08:29:05;;;;;;;3.70;1.20;;;17.70;99.10;;;;;;5075346;28;20176;-68
2023/04/28 08:31:31;;;;;;;1.63;1.58;;;17.70;99.90;;;;;;5074637;28;20169;-69
2023/04/28 08:33:57;;;;;;;1.40;1.30;;;17.60;99.90;;;;;;5074546;28;20188;-68
2023/04/28 08:36:25;;;;;;;1.75;1.50;;;17.30;99.90;;;;;;5074801;28;20640;-69
2023/04/28 08:38:51;;;;;;;1.55;1.45;;;17.30;99.90;;;;;;5075058;28;20192;-69
2023/04/28 08:41:18;;;;;;;1.50;1.40;;;17.20;99.90;;;;;;5074411;28;20261;-71
2023/04/28 08:43:44;;;;;;;1.83;1.30;;;17.10;99.90;;;;;;5073613;28;20204;-68
2023/04/28 08:46:10;;;;;;;1.13;1.10;;;17.10;99.90;;;;;;5093435;28;20334;-69
2023/04/28 08:48:42;;;;;;;1.70;1.40;;;17.00;99.90;;;;;;5094012;28;20263;-68
2023/04/28 08:51:08;;;;;;;1.33;1.02;;;17.00;99.90;;;;;;5092778;28;20194;-67
2023/04/28 08:53:38;;;;;;;2.08;1.20;;;17.10;99.90;;;;;;5081845;28;20510;-68
2023/04/28 08:56:06;;;;;;;0.95;0.85;;;17.30;99.90;;;;;;5074167;28;20173;-67
2023/04/28 08:58:35;;;;;;;1.10;1.00;;;17.30;99.90;;;;;;5093686;28;20191;-70
2023/04/28 09:01:04;;;;;;;0.70;0.70;;;17.30;99.90;;;;;;5083328;28;20325;-61
2023/04/28 09:03:31;;;;;;;1.35;0.80;;;17.40;99.90;;;;;;5093729;28;20171;-65
2023/04/28 09:05:57;;;;;;;1.40;0.80;;;17.40;99.90;;;;;;5093968;28;20179;-61
2023/04/28 09:08:22;;;;;;;0.60;0.60;;;17.40;99.90;;;;;;5093921;28;20168;-63
2023/04/28 09:11:08;;;;;;;1.70;0.70;;;17.40;99.90;;;;;;5094117;28;20167;-63
2023/04/28 09:13:34;;;;;;;0.73;0.73;;;17.90;99.90;;;;;;5094666;28;20198;-63
2023/04/28 09:16:01;;;;;;;0.70;0.70;;;18.10;90.00;;;;;;5089396;28;20180;-67
2023/04/28 09:18:32;;;;;;;3.95;0.88;;;18.20;77.80;;;;;;5073097;28;20624;-63
2023/04/28 09:21:08;;;;;;;0.60;0.60;;;18.50;75.10;;;;;;5073381;28;20540;-67
2023/04/28 09:23:50;;;;;;;1.98;0.52;;;18.60;61.50;;;;;;5073845;28;20172;-68
2023/04/28 09:26:16;;;;;;;0.75;0.52;;;18.90;45.90;;;;;;5073773;28;20232;-69
2023/04/28 09:28:42;;;;;;;0.70;0.57;;;19.30;35.00;;;;;;5072643;28;20259;-68
2023/04/28 09:31:26;;;;;;;1.05;0.80;;;19.50;17.70;;;;;;5073335;28;20695;-67
2023/04/28 09:33:58;;;;;;;1.27;0.50;;;19.60;25.60;;;;;;5073424;28;20165;-67
2023/04/28 09:36:29;;;;;;;1.75;0.77;;;19.60;18.40;;;;;;5072837;28;20653;-67
2023/04/28 09:38:58;;;;;;;1.48;1.08;;;19.20;24.60;;;;;;5073612;28;20337;-67
2023/04/28 09:41:41;;;;;;;3.22;1.35;;;19.40;35.50;;;;;;5073206;28;20164;-67
2023/04/28 09:44:14;;;;;;;2.92;1.33;;;19.30;25.70;;;;;;5072966;28;20231;-66
2023/04/28 09:46:40;;;;;;;3.92;1.80;;;19.30;27.40;;;;;;5072913;28;20169;-66
2023/04/28 09:49:06;;;;;;;2.38;1.80;;;19.30;34.20;;;;;;5073745;28;20180;-66
2023/04/28 09:51:33;;;;;;;1.42;1.30;;;20.00;22.90;;;;;;5071795;28;20651;-67
2023/04/28 09:54:00;;;;;;;1.33;1.23;;;20.40;1.00;;;;;;5072431;28;20219;-64
2023/04/28 09:56:30;;;;;;;2.20;1.30;;;21.00;1.00;;;;;;5073121;28;20644;-67
2023/04/28 09:59:00;;;;;;;3.30;1.85;;;21.00;1.00;;;;;;5072955;28;20259;-67
2023/04/28 10:01:37;;;;;;;1.80;1.70;;;21.30;1.00;;;;;;5072524;28;20631;-67
2023/04/28 10:04:03;;;;;;;1.85;1.70;;;21.20;1.00;;;;;;5073236;28;20176;-67
2023/04/28 10:06:29;;;;;;;1.95;1.58;;;21.90;1.00;;;;;;5072640;28;20164;-66
2023/04/28 10:08:57;;;;;;;4.05;1.90;;;22.10;1.00;;;;;;5083970;28;20643;-66
2023/04/28 10:11:24;;;;;;;2.20;2.10;;;21.80;1.00;;;;;;5092237;28;20225;-67
2023/04/28 10:13:52;;;;;;;1.38;1.38;;;21.10;1.00;;;;;;5093618;28;20179;-67
2023/04/28 10:16:18;;;;;;;2.33;1.13;;;20.40;1.00;;;;;;5092131;28;20168;-66
2023/04/28 10:18:44;;;;;;;1.08;0.98;;;20.40;1.00;;;;;;5092972;28;20640;-67
2023/04/28 10:21:15;;;;;;;1.35;0.68;;;20.10;1.00;;;;;;5092825;28;20193;-68
2023/04/28 10:23:59;;;;;;;0.80;0.80;;;19.80;1.00;;;;;;5092282;28;20254;-68
2023/04/28 10:26:56;;;;;;;0.68;0.68;;;19.60;1.00;;;;;;5092194;28;20667;-67
2023/04/28 10:29:24;;;;;;;0.63;0.60;;;19.30;1.00;;;;;;5092088;28;20176;-66
2023/04/28 10:32:14;;;;;;;1.48;0.88;;;18.70;19.40;;;;;;5092175;28;20206;-66
2023/04/28 10:34:39;;;;;;;0.77;0.77;;;18.30;30.60;;;;;;5091897;28;20172;-65
2023/04/28 10:37:05;;;;;;;1.15;0.80;;;18.40;32.90;;;;;;5092391;28;20172;-66
2023/04/28 10:39:31;;;;;;;0.93;0.80;;;18.20;35.30;;;;;;5092313;28;20203;-67
2023/04/28 10:41:56;;;;;;;1.08;0.77;;;18.10;37.90;;;;;;5092350;28;20183;-68
2023/04/28 10:44:31;;;;;;;1.83;0.80;;;18.30;37.70;;;;;;5092619;28;20226;-66
2023/04/28 10:47:03;;;;;;;1.67;1.58;;;18.60;28.50;;;;;;5091391;28;20176;-67
2023/04/28 10:49:54;;;;;;;0.90;0.90;;;18.60;28.60;;;;;;5092436;28;20179;-67
2023/04/28 10:52:49;;;;;;;2.40;1.02;;;18.60;29.00;;;;;;5092426;28;20228;-66
2023/04/28 10:55:32;;;;;;;2.53;1.10;;;18.40;33.30;;;;;;5029598;28;20185;-66
2023/04/28 10:58:24;;;;;;;1.38;1.27;;;18.30;38.50;;;;;;5029740;28;20265;-67
2023/04/28 11:00:52;;;;;;;1.38;1.20;;;17.90;44.60;;;;;;5025779;28;20300;-67
2023/04/28 11:03:42;;;;;;;1.33;1.23;;;17.80;46.80;;;;;;5029872;28;20225;-67
2023/04/28 11:06:24;;;;;;;2.20;1.60;;;17.90;49.80;;;;;;5030132;28;20182;-66
2023/04/28 11:08:50;;;;;;;1.67;1.58;;;17.60;62.30;;;;;;5030043;28;20294;-67
2023/04/28 11:11:18;;;;;;;3.60;1.70;;;17.60;62.60;;;;;;5030532;28;20174;-67
2023/04/28 11:13:45;;;;;;;1.38;1.38;;;17.70;66.20;;;;;;5029637;28;20178;-67
2023/04/28 11:16:15;;;;;;;1.42;1.33;;;17.50;64.60;;;;;;5029657;28;20185;-68
2023/04/28 11:19:03;;;;;;;2.10;1.40;;;17.60;67.20;;;;;;5028999;28;20182;-66
2023/04/28 11:21:29;;;;;;;1.73;1.40;;;17.70;59.90;;;;;;5030124;28;20217;-66
2023/04/28 11:23:56;;;;;;;1.80;1.70;;;17.60;64.60;;;;;;5029394;28;20240;-66
2023/04/28 11:26:22;;;;;;;1.70;1.58;;;17.40;70.90;;;;;;5029269;28;20198;-66
2023/04/28 11:28:55;;;;;;;2.53;1.60;;;17.40;74.00;;;;;;5030941;28;20173;-67
2023/04/28 11:31:23;;;;;;;4.10;1.30;;;17.30;71.80;;;;;;5045024;28;20272;-66
2023/04/28 11:33:54;;;;;;;1.40;1.30;;;17.20;80.30;;;;;;5096602;28;20250;-68
2023/04/28 11:36:34;;;;;;;1.23;1.23;;;17.00;90.20;;;;;;5094755;28;20164;-68
2023/04/28 11:39:04;;;;;;;1.90;1.50;;;17.00;90.70;;;;;;5095949;28;20199;-66
2023/04/28 11:41:30;;;;;;;1.50;1.40;;;16.90;90.30;;;;;;5095841;28;20178;-66
2023/04/28 11:43:56;;;;;;;1.40;1.30;;;16.70;91.80;;;;;;5094757;28;20224;-67
2023/04/28 11:46:24;;;;;;;2.13;1.30;;;16.60;95.60;;;;;;5096443;28;20250;-67
2023/04/28 11:49:05;;;;;;;2.30;1.80;;;16.50;94.00;;;;;;5095421;28;20160;-68
2023/04/28 11:51:38;;;;;;;1.47;1.37;;;16.60;98.80;;;;;;5095795;28;20272;-65
2023/04/28 11:54:06;;;;;;;3.37;1.20;;;16.80;94.00;;;;;;5094273;28;20187;-67
2023/04/28 11:56:39;;;;;;;1.83;1.60;;;16.70;93.30;;;;;;5094705;28;20201;-67
2023/04/28 11:59:10;;;;;;;1.90;1.80;;;16.70;94.50;;;;;;5096030;28;20230;-67
2023/04/28 12:01:50;;;;;;;1.90;1.80;;;16.60;95.30;;;;;;5095653;28;20620;-67
2023/04/28 12:04:38;;;;;;;1.90;1.80;;;16.80;92.00;;;;;;5094877;28;20631;-65
2023/04/28 12:07:09;;;;;;;1.98;1.88;;;17.10;83.40;;;;;;5095030;28;20179;-67
2023/04/28 12:09:37;;;;;;;2.03;1.70;;;17.10;71.40;;;;;;5095009;28;20191;-67
2023/04/28 12:12:05;;;;;;;2.80;1.40;;;16.70;82.50;;;;;;5095149;28;20172;-68
2023/04/28 12:14:34;;;;;;;3.03;1.40;;;16.60;77.80;;;;;;5095215;28;20646;-68
2023/04/28 12:17:00;;;;;;;1.50;1.40;;;16.70;80.60;;;;;;5095478;28;20172;-67
2023/04/28 12:19:26;;;;;;;1.30;1.30;;;16.70;68.20;;;;;;5095234;28;20191;-67
2023/04/28 12:21:59;;;;;;;1.40;1.30;;;16.80;63.20;;;;;;5095013;28;20168;-64
2023/04/28 12:24:25;;;;;;;2.63;1.03;;;16.80;72.80;;;;;;5095314;28;20186;-67
2023/04/28 12:26:52;;;;;;;3.87;1.40;;;17.00;60.50;;;;;;5094752;28;20192;-68
2023/04/28 12:29:37;;;;;;;3.05;1.13;;;17.00;57.00;;;;;;5094841;28;20185;-69
2023/04/28 12:32:03;;;;;;;4.80;1.30;;;17.00;53.90;;;;;;5094834;28;20171;-69
2023/04/28 12:34:30;;;;;;;1.17;1.08;;;17.10;55.10;;;;;;5095132;28;20256;-68
2023/04/28 12:36:55;;;;;;;2.97;1.30;;;16.90;52.90;;;;;;5093244;28;20508;-68
2023/04/28 12:39:21;;;;;;;3.53;1.30;;;16.90;64.10;;;;;;5092334;28;20207;-67